Time;durP1;ratioP1;P1;durP2;ratioP2;P2;SDS_P1;SDS_P2;PMS_P1;PMS_P2;Temp;Humidity;BMP_temperature;BMP_pressure;BME280_temperature;BME280_humidity;BME280_pressure;Samples;Min_cycle;Max_cycle;Signal;HPM_P1;HPM_P2
2023/10/11 00:00:33;;;;;;;5.33;1.90;;;;;;;;;;5073040;28;20250;-73
2023/10/11 00:03:05;;;;;;;2.83;1.23;;;;;;;;;;5047829;28;20229;-73
2023/10/11 00:05:40;;;;;;;1.33;1.17;;;;;;;;;;5073187;28;20224;-74
2023/10/11 00:08:08;;;;;;;1.73;1.23;;;;;;;;;;5072503;28;20200;-73
2023/10/11 00:10:43;;;;;;;0.90;0.83;;;;;;;;;;5072398;28;20272;-72
2023/10/11 00:13:15;;;;;;;1.10;1.00;;;;;;;;;;5072949;28;20201;-73
2023/10/11 00:15:42;;;;;;;1.90;1.00;;;;;;;;;;5072389;28;20198;-73
2023/10/11 00:18:10;;;;;;;1.40;1.30;;;;;;;;;;5072589;28;20655;-73
2023/10/11 00:20:50;;;;;;;4.13;1.03;;;;;;;;;;5072063;28;20679;-72
2023/10/11 00:23:18;;;;;;;2.50;1.10;;;;;;;;;;5072295;28;20622;-73
2023/10/11 00:25:46;;;;;;;3.43;1.73;;;;;;;;;;5072560;28;20225;-73
2023/10/11 00:28:14;;;;;;;2.00;1.10;;;;;;;;;;5072156;28;20649;-73
2023/10/11 00:30:46;;;;;;;2.60;1.30;;;;;;;;;;5072664;28;20201;-73
2023/10/11 00:33:13;;;;;;;3.23;1.20;;;;;;;;;;5072407;28;20361;-73
2023/10/11 00:35:44;;;;;;;2.37;1.23;;;;;;;;;;5072420;28;20205;-73
2023/10/11 00:38:14;;;;;;;2.30;1.40;;;;;;;;;;5071253;28;20672;-73
2023/10/11 00:40:43;;;;;;;1.23;1.10;;;;;;;;;;5072612;28;20201;-73
2023/10/11 00:43:19;;;;;;;4.47;1.30;;;;;;;;;;5071631;28;20208;-73
2023/10/11 00:45:46;;;;;;;1.13;1.03;;;;;;;;;;5070921;28;20245;-73
2023/10/11 00:48:19;;;;;;;2.90;1.50;;;;;;;;;;5071223;28;20205;-73
2023/10/11 00:50:49;;;;;;;1.27;1.00;;;;;;;;;;5072317;28;20233;-73
2023/10/11 00:53:17;;;;;;;1.20;1.10;;;;;;;;;;5071875;28;20233;-73
2023/10/11 00:55:45;;;;;;;3.47;1.37;;;;;;;;;;5071490;28;20605;-73
2023/10/11 00:58:15;;;;;;;2.30;1.10;;;;;;;;;;5071598;28;20201;-73
2023/10/11 01:00:45;;;;;;;3.23;1.37;;;;;;;;;;5071787;28;20722;-73
2023/10/11 01:03:13;;;;;;;3.43;1.20;;;;;;;;;;5071513;28;20198;-73
2023/10/11 01:05:43;;;;;;;0.83;0.83;;;;;;;;;;5071225;28;20229;-73
2023/10/11 01:08:12;;;;;;;5.27;1.33;;;;;;;;;;5071401;28;20254;-73
2023/10/11 01:10:39;;;;;;;1.53;1.10;;;;;;;;;;5067235;28;20743;-73
2023/10/11 01:13:05;;;;;;;1.77;1.40;;;;;;;;;;5061641;28;20207;-73
2023/10/11 01:15:33;;;;;;;2.90;1.03;;;;;;;;;;5071168;28;20212;-73
2023/10/11 01:18:01;;;;;;;1.53;1.00;;;;;;;;;;5071001;28;20220;-73
2023/10/11 01:20:31;;;;;;;3.33;1.23;;;;;;;;;;5071180;28;20201;-73
2023/10/11 01:22:59;;;;;;;3.20;1.50;;;;;;;;;;5071528;28;20200;-74
2023/10/11 01:25:26;;;;;;;1.90;1.13;;;;;;;;;;5070904;28;20292;-73
2023/10/11 01:27:53;;;;;;;6.23;1.40;;;;;;;;;;5071309;28;20208;-73
2023/10/11 01:30:19;;;;;;;6.10;1.50;;;;;;;;;;5070792;28;20212;-73
2023/10/11 01:32:48;;;;;;;1.20;1.07;;;;;;;;;;5070471;28;20209;-73
2023/10/11 01:35:20;;;;;;;4.80;1.10;;;;;;;;;;5070581;28;20697;-73
2023/10/11 01:37:48;;;;;;;2.17;1.20;;;;;;;;;;5070940;28;20211;-73
2023/10/11 01:40:21;;;;;;;1.60;1.30;;;;;;;;;;5045241;28;20229;-73
2023/10/11 01:42:50;;;;;;;1.27;1.17;;;;;;;;;;5070843;28;20412;-73
2023/10/11 01:45:17;;;;;;;1.27;1.20;;;;;;;;;;5070833;28;20324;-73
2023/10/11 01:47:47;;;;;;;3.57;1.10;;;;;;;;;;5070772;28;20291;-73
2023/10/11 01:50:15;;;;;;;3.73;1.00;;;;;;;;;;5071072;28;20252;-73
2023/10/11 01:52:43;;;;;;;6.37;2.13;;;;;;;;;;5070353;28;20269;-73
2023/10/11 01:55:11;;;;;;;1.30;1.10;;;;;;;;;;5070809;28;20204;-73
2023/10/11 01:57:45;;;;;;;5.97;1.20;;;;;;;;;;5069124;28;20197;-73
2023/10/11 02:00:14;;;;;;;2.97;1.17;;;;;;;;;;5071081;28;20633;-73
2023/10/11 02:02:47;;;;;;;1.43;1.37;;;;;;;;;;5070429;28;20197;-73
2023/10/11 02:05:15;;;;;;;1.27;1.00;;;;;;;;;;5070927;28;20279;-73
2023/10/11 02:07:42;;;;;;;3.83;1.40;;;;;;;;;;5070561;28;20208;-73
2023/10/11 02:10:12;;;;;;;1.57;1.47;;;;;;;;;;5070631;28;20675;-73
2023/10/11 02:12:44;;;;;;;3.03;1.40;;;;;;;;;;5070974;28;20278;-73
2023/10/11 02:15:21;;;;;;;4.93;1.20;;;;;;;;;;5069890;28;20205;-73
2023/10/11 02:17:49;;;;;;;2.10;1.07;;;;;;;;;;5070632;28;20239;-73
2023/10/11 02:20:20;;;;;;;1.40;1.30;;;;;;;;;;5070685;28;20196;-73
2023/10/11 02:22:50;;;;;;;3.23;1.20;;;;;;;;;;5069994;28;20201;-73
2023/10/11 02:25:17;;;;;;;2.00;1.63;;;;;;;;;;5069947;28;20266;-73
2023/10/11 02:27:45;;;;;;;1.00;1.00;;;;;;;;;;5070384;28;20205;-72
2023/10/11 02:30:19;;;;;;;4.90;1.40;;;;;;;;;;5070851;28;20204;-73
2023/10/11 02:32:45;;;;;;;1.90;1.10;;;;;;;;;;5070047;28;20201;-73
2023/10/11 02:35:13;;;;;;;1.20;0.93;;;;;;;;;;5069964;28;20226;-73
2023/10/11 02:37:40;;;;;;;4.27;1.30;;;;;;;;;;5070219;28;20205;-73
2023/10/11 02:40:09;;;;;;;3.13;1.20;;;;;;;;;;5069723;28;20197;-73
2023/10/11 02:42:37;;;;;;;1.93;1.20;;;;;;;;;;5070455;28;20647;-73
2023/10/11 02:45:07;;;;;;;2.17;1.30;;;;;;;;;;5044518;28;20582;-73
2023/10/11 02:47:35;;;;;;;2.50;1.20;;;;;;;;;;5069110;28;20599;-73
2023/10/11 02:50:07;;;;;;;2.37;1.10;;;;;;;;;;5062888;28;20225;-72
2023/10/11 02:52:36;;;;;;;2.07;1.30;;;;;;;;;;5050817;28;20208;-70
2023/10/11 02:55:16;;;;;;;1.33;1.23;;;;;;;;;;5050948;28;20229;-70
2023/10/11 02:57:43;;;;;;;2.90;1.60;;;;;;;;;;5055635;28;20584;-70
2023/10/11 03:00:21;;;;;;;4.90;2.60;;;;;;;;;;5065383;28;20197;-70
2023/10/11 03:02:55;;;;;;;1.23;1.13;;;;;;;;;;5060003;28;20202;-71
2023/10/11 03:05:26;;;;;;;0.97;0.90;;;;;;;;;;5064445;28;20261;-70
2023/10/11 03:07:55;;;;;;;1.43;1.23;;;;;;;;;;5062992;28;20205;-70
2023/10/11 03:10:22;;;;;;;2.60;1.07;;;;;;;;;;5067199;28;20291;-70
2023/10/11 03:12:51;;;;;;;1.83;1.20;;;;;;;;;;5068135;28;20193;-70
2023/10/11 03:15:20;;;;;;;1.40;1.27;;;;;;;;;;5065945;28;20212;-70
2023/10/11 03:17:52;;;;;;;3.03;1.17;;;;;;;;;;5069435;28;20209;-70
2023/10/11 03:20:30;;;;;;;1.57;1.10;;;;;;;;;;5073229;28;20580;-70
2023/10/11 03:22:59;;;;;;;2.53;1.33;;;;;;;;;;5073352;28;20203;-71
2023/10/11 03:25:29;;;;;;;1.97;1.20;;;;;;;;;;5072513;28;20207;-71
2023/10/11 03:27:57;;;;;;;1.30;1.10;;;;;;;;;;5059388;28;20642;-71
2023/10/11 03:30:26;;;;;;;4.27;1.40;;;;;;;;;;5070279;28;20195;-71
2023/10/11 03:32:53;;;;;;;2.13;1.10;;;;;;;;;;5072234;28;20201;-71
2023/10/11 03:35:25;;;;;;;1.70;1.50;;;;;;;;;;5072192;28;20651;-71
2023/10/11 03:37:58;;;;;;;1.53;1.27;;;;;;;;;;5072200;28;20595;-71
2023/10/11 03:40:34;;;;;;;2.20;1.30;;;;;;;;;;5072074;28;20197;-71
2023/10/11 03:43:11;;;;;;;3.90;1.33;;;;;;;;;;5072619;28;20204;-70
2023/10/11 03:45:40;;;;;;;5.70;2.37;;;;;;;;;;5072372;28;20314;-70
2023/10/11 03:48:10;;;;;;;10.67;1.60;;;;;;;;;;5072764;28;20642;-71
2023/10/11 03:50:47;;;;;;;3.77;1.70;;;;;;;;;;5072703;28;20228;-71
2023/10/11 03:53:15;;;;;;;1.30;1.20;;;;;;;;;;5072952;28;20209;-70
2023/10/11 03:55:46;;;;;;;1.47;1.13;;;;;;;;;;5072930;28;20197;-71
2023/10/11 03:58:32;;;;;;;2.20;1.90;;;;;;;;;;5072967;28;20770;-71
2023/10/11 04:01:06;;;;;;;2.10;1.17;;;;;;;;;;5073056;28;20193;-71
2023/10/11 04:03:33;;;;;;;2.70;1.77;;;;;;;;;;5072486;28;20200;-71
2023/10/11 04:06:00;;;;;;;1.83;1.70;;;;;;;;;;5058737;28;20232;-71
2023/10/11 04:08:27;;;;;;;2.97;1.50;;;;;;;;;;5072653;28;20239;-71
2023/10/11 04:10:54;;;;;;;3.80;1.50;;;;;;;;;;5066502;28;20198;-71
2023/10/11 04:13:25;;;;;;;3.27;1.70;;;;;;;;;;5066208;28;20205;-71
2023/10/11 04:15:55;;;;;;;1.53;1.10;;;;;;;;;;5072901;28;20224;-71
2023/10/11 04:18:37;;;;;;;1.40;1.20;;;;;;;;;;5071894;28;20941;-70
2023/10/11 04:21:16;;;;;;;7.40;1.70;;;;;;;;;;5071033;28;20201;-71
2023/10/11 04:23:45;;;;;;;2.20;0.93;;;;;;;;;;5066398;28;20205;-71
2023/10/11 04:26:26;;;;;;;1.20;1.10;;;;;;;;;;5069661;28;20217;-71
2023/10/11 04:28:52;;;;;;;1.17;1.10;;;;;;;;;;5072220;28;20230;-70
2023/10/11 04:31:31;;;;;;;2.93;1.37;;;;;;;;;;5070889;28;20201;-71
2023/10/11 04:33:59;;;;;;;2.40;1.30;;;;;;;;;;5067519;28;20197;-74
2023/10/11 04:36:28;;;;;;;4.60;1.40;;;;;;;;;;5071932;28;20288;-73
2023/10/11 04:39:03;;;;;;;4.83;1.10;;;;;;;;;;5071683;28;20222;-73
2023/10/11 04:41:38;;;;;;;3.93;1.73;;;;;;;;;;5071714;28;20243;-73
2023/10/11 04:44:13;;;;;;;1.20;1.10;;;;;;;;;;5072001;28;20234;-73
2023/10/11 04:46:44;;;;;;;6.27;1.60;;;;;;;;;;5069901;28;20780;-73
2023/10/11 04:49:19;;;;;;;2.47;2.13;;;;;;;;;;5065012;28;20312;-73
2023/10/11 04:51:47;;;;;;;2.77;1.63;;;;;;;;;;5072311;28;20250;-73
2023/10/11 04:54:15;;;;;;;4.27;2.00;;;;;;;;;;5071308;28;20684;-73
2023/10/11 04:56:56;;;;;;;21.33;3.77;;;;;;;;;;5071678;28;20296;-73
2023/10/11 04:59:36;;;;;;;6.87;2.20;;;;;;;;;;5071173;28;20201;-73
2023/10/11 05:02:09;;;;;;;1.77;1.20;;;;;;;;;;5071993;28;20205;-73
2023/10/11 05:04:44;;;;;;;7.63;1.47;;;;;;;;;;5045649;28;20680;-73
2023/10/11 05:07:13;;;;;;;5.40;1.50;;;;;;;;;;5070949;28;20243;-73
2023/10/11 05:09:40;;;;;;;3.00;1.20;;;;;;;;;;5071334;28;20201;-73
2023/10/11 05:12:08;;;;;;;4.77;2.53;;;;;;;;;;5070592;28;20211;-73
2023/10/11 05:14:39;;;;;;;2.53;1.77;;;;;;;;;;5071339;28;20232;-73
2023/10/11 05:19:57;;;;;;;3.13;1.40;;;;;;;;;;5071513;28;20212;-72
2023/10/11 05:22:29;;;;;;;2.77;1.10;;;;;;;;;;5071124;28;20672;-72
2023/10/11 05:25:12;;;;;;;4.93;2.13;;;;;;;;;;5071455;28;20236;-72
2023/10/11 05:27:47;;;;;;;10.43;2.30;;;;;;;;;;5071388;28;20229;-73
2023/10/11 05:30:28;;;;;;;6.17;2.30;;;;;;;;;;5070702;28;20214;-73
2023/10/11 05:32:58;;;;;;;2.53;1.70;;;;;;;;;;5070540;28;20291;-73
2023/10/11 05:51:51;;;;;;;4.73;2.07;;;;;;;;;;5048336;28;20253;-72
2023/10/11 05:54:20;;;;;;;8.37;2.67;;;;;;;;;;5070366;28;20591;-72
2023/10/11 05:56:47;;;;;;;8.40;1.97;;;;;;;;;;5070428;28;20639;-73
2023/10/11 05:59:14;;;;;;;4.73;1.57;;;;;;;;;;5070562;28;20695;-72
2023/10/11 06:01:43;;;;;;;4.10;1.50;;;;;;;;;;5071054;28;20380;-73
2023/10/11 06:04:13;;;;;;;2.13;1.73;;;;;;;;;;5070566;28;20255;-73
2023/10/11 06:06:42;;;;;;;1.10;1.10;;;;;;;;;;5070048;28;20228;-72
2023/10/11 06:09:17;;;;;;;4.70;1.53;;;;;;;;;;5070343;28;20617;-72
2023/10/11 06:11:48;;;;;;;8.13;1.37;;;;;;;;;;5070982;28;20196;-72
2023/10/11 06:14:17;;;;;;;8.07;3.80;;;;;;;;;;5070580;28;20586;-72
2023/10/11 06:16:49;;;;;;;5.20;2.50;;;;;;;;;;5070072;28;20227;-73
2023/10/11 06:19:19;;;;;;;5.13;1.77;;;;;;;;;;5070666;28;20232;-73
2023/10/11 06:22:00;;;;;;;1.60;1.17;;;;;;;;;;5069881;28;20644;-72
2023/10/11 06:24:33;;;;;;;3.40;1.77;;;;;;;;;;5071080;28;20201;-72
2023/10/11 06:27:11;;;;;;;3.90;1.33;;;;;;;;;;5070439;28;20259;-73
2023/10/11 06:29:38;;;;;;;4.70;2.00;;;;;;;;;;5070408;28;20200;-73
2023/10/11 06:32:10;;;;;;;1.80;1.43;;;;;;;;;;5070120;28;20215;-73
2023/10/11 06:34:37;;;;;;;2.60;1.40;;;;;;;;;;5070092;28;20288;-73
2023/10/11 06:37:06;;;;;;;3.53;1.50;;;;;;;;;;5070646;28;20205;-72
2023/10/11 06:42:21;;;;;;;4.67;1.40;;;;;;;;;;5070214;28;20205;-73
2023/10/11 06:44:48;;;;;;;13.97;9.10;;;;;;;;;;5073617;28;20232;-73
2023/10/11 06:47:15;;;;;;;6.80;4.03;;;;;;;;;;5074020;28;20772;-73
2023/10/11 06:49:44;;;;;;;5.33;2.27;;;;;;;;;;5060556;28;20224;-73
2023/10/11 06:52:12;;;;;;;2.73;1.90;;;;;;;;;;5073996;28;20676;-73
2023/10/11 06:54:45;;;;;;;2.10;1.90;;;;;;;;;;5073720;28;20250;-73
2023/10/11 06:57:16;;;;;;;8.47;5.60;;;;;;;;;;5073928;28;20263;-73
2023/10/11 06:59:43;;;;;;;4.47;2.40;;;;;;;;;;5074233;28;20193;-73
2023/10/11 07:02:18;;;;;;;7.23;2.07;;;;;;;;;;5073832;28;20213;-74
2023/10/11 07:04:50;;;;;;;1.73;1.57;;;;;;;;;;5074267;28;20196;-73
2023/10/11 07:07:18;;;;;;;4.03;1.97;;;;;;;;;;5073202;28;20221;-73
2023/10/11 07:09:56;;;;;;;2.03;1.70;;;;;;;;;;5073870;28;20251;-73
2023/10/11 07:12:39;;;;;;;3.73;1.60;;;;;;;;;;5073323;28;20591;-73
2023/10/11 07:15:09;;;;;;;5.07;1.30;;;;;;;;;;5074067;28;20304;-73
2023/10/11 07:17:36;;;;;;;4.30;1.53;;;;;;;;;;5073616;28;20228;-73
2023/10/11 07:20:44;;;;;;;9.83;7.30;;;;;;;;;;5073271;28;20193;-74
2023/10/11 07:22:53;;;;;;;2.50;1.60;;;;;;;;;;5052602;28;20208;-73
2023/10/11 07:28:03;;;;;;;1.40;1.30;;;;;;;;;;5073529;28;20258;-73
2023/10/11 07:30:37;;;;;;;4.40;3.93;;;;;;;;;;5073029;28;20205;-73
2023/10/11 07:33:05;;;;;;;5.50;2.87;;;;;;;;;;5072979;28;20292;-74
2023/10/11 07:35:32;;;;;;;3.50;2.17;;;;;;;;;;5073409;28;20699;-73
2023/10/11 07:38:00;;;;;;;6.93;5.73;;;;;;;;;;5073123;28;20232;-73
2023/10/11 07:40:33;;;;;;;6.77;3.13;;;;;;;;;;5073529;28;20258;-73
2023/10/11 07:43:00;;;;;;;6.40;3.80;;;;;;;;;;5072928;28;20205;-73
2023/10/11 07:45:28;;;;;;;5.63;1.50;;;;;;;;;;5073114;28;20250;-73
2023/10/11 07:47:55;;;;;;;2.43;2.00;;;;;;;;;;5073464;28;20670;-73
2023/10/11 07:50:23;;;;;;;1.70;1.60;;;;;;;;;;5073645;28;20233;-73
2023/10/11 07:52:50;;;;;;;4.57;1.47;;;;;;;;;;5072898;28;20243;-73
2023/10/11 07:55:17;;;;;;;2.43;2.10;;;;;;;;;;5073006;28;20198;-73
2023/10/11 07:57:46;;;;;;;4.77;3.20;;;;;;;;;;5073044;28;20201;-73
2023/10/11 08:00:18;;;;;;;4.53;3.60;;;;;;;;;;5072770;28;20205;-73
2023/10/11 08:02:56;;;;;;;2.10;1.40;;;;;;;;;;5072528;28;20284;-73
2023/10/11 08:05:25;;;;;;;6.17;2.67;;;;;;;;;;5072730;28;20600;-73
2023/10/11 08:07:52;;;;;;;2.13;1.73;;;;;;;;;;5072980;28;20227;-72
2023/10/11 08:10:33;;;;;;;2.27;1.70;;;;;;;;;;5072821;28;20270;-73
2023/10/11 08:13:02;;;;;;;4.23;2.33;;;;;;;;;;5072903;28;20205;-74
2023/10/11 08:15:29;;;;;;;8.37;4.30;;;;;;;;;;5072963;28;20207;-73
2023/10/11 08:17:56;;;;;;;2.37;2.17;;;;;;;;;;5072931;28;20201;-73
2023/10/11 08:20:28;;;;;;;2.97;1.50;;;;;;;;;;5071950;28;20201;-72
2023/10/11 08:22:57;;;;;;;2.83;1.50;;;;;;;;;;5073282;28;20208;-73
2023/10/11 08:25:27;;;;;;;4.67;1.30;;;;;;;;;;5072356;28;20288;-73
2023/10/11 08:28:10;;;;;;;2.73;1.97;;;;;;;;;;5072733;28;20600;-73
2023/10/11 08:30:39;;;;;;;6.10;3.93;;;;;;;;;;5064058;28;20243;-73
2023/10/11 08:33:07;;;;;;;8.40;2.50;;;;;;;;;;5068324;28;20201;-72
2023/10/11 08:35:34;;;;;;;1.93;1.73;;;;;;;;;;5072321;28;20213;-73
2023/10/11 08:38:04;;;;;;;2.03;1.83;;;;;;;;;;5071687;28;20200;-74
2023/10/11 08:40:35;;;;;;;3.37;1.30;;;;;;;;;;5072526;28;20201;-74
2023/10/11 08:43:02;;;;;;;2.63;1.73;;;;;;;;;;5072030;28;20620;-74
2023/10/11 08:45:33;;;;;;;4.43;1.77;;;;;;;;;;5071836;28;20208;-73
2023/10/11 08:48:03;;;;;;;1.80;1.70;;;;;;;;;;5071976;28;20582;-72
2023/10/11 08:50:34;;;;;;;2.43;1.60;;;;;;;;;;5071705;28;20252;-73
2023/10/11 08:53:02;;;;;;;2.47;1.97;;;;;;;;;;5071043;28;20189;-74
2023/10/11 08:55:29;;;;;;;3.20;2.27;;;;;;;;;;5072428;28;20201;-73
2023/10/11 08:57:55;;;;;;;1.43;1.33;;;;;;;;;;5071511;28;20225;-72
2023/10/11 09:00:30;;;;;;;2.70;1.73;;;;;;;;;;5071892;28;20683;-73
2023/10/11 09:02:58;;;;;;;3.23;1.60;;;;;;;;;;5045464;28;20291;-73
2023/10/11 09:05:42;;;;;;;1.30;1.20;;;;;;;;;;5071565;28;20227;-74
2023/10/11 09:08:20;;;;;;;1.40;1.30;;;;;;;;;;5049907;28;20315;-72
2023/10/11 09:10:49;;;;;;;4.33;1.80;;;;;;;;;;5070954;28;20240;-73
2023/10/11 09:13:25;;;;;;;3.33;1.77;;;;;;;;;;5071645;28;20205;-73
2023/10/11 09:15:54;;;;;;;1.77;1.30;;;;;;;;;;5071495;28;20216;-73
2023/10/11 09:18:21;;;;;;;1.70;1.57;;;;;;;;;;5071116;28;20235;-73
2023/10/11 09:20:58;;;;;;;3.83;1.97;;;;;;;;;;5045547;28;20620;-72
2023/10/11 09:23:35;;;;;;;2.03;1.47;;;;;;;;;;5070803;28;20659;-74
2023/10/11 09:26:02;;;;;;;3.37;1.70;;;;;;;;;;5071754;28;20201;-74
2023/10/11 09:28:33;;;;;;;3.50;1.80;;;;;;;;;;5071407;28;20217;-73
2023/10/11 09:31:11;;;;;;;3.20;1.67;;;;;;;;;;5071610;28;20208;-74
2023/10/11 09:33:40;;;;;;;1.90;1.30;;;;;;;;;;5071281;28;20228;-73
2023/10/11 09:36:09;;;;;;;3.37;1.70;;;;;;;;;;5070860;28;20201;-74
2023/10/11 09:38:40;;;;;;;2.47;1.50;;;;;;;;;;5070806;28;20292;-73
2023/10/11 09:41:08;;;;;;;2.80;1.60;;;;;;;;;;5071182;28;20628;-73
2023/10/11 09:43:38;;;;;;;4.67;1.83;;;;;;;;;;5070746;28;20255;-73
2023/10/11 09:46:11;;;;;;;1.30;1.20;;;;;;;;;;5070582;28;20212;-73
2023/10/11 09:48:38;;;;;;;2.73;1.73;;;;;;;;;;5070495;28;20289;-73
2023/10/11 09:51:09;;;;;;;2.07;1.33;;;;;;;;;;5070649;28;20206;-73
2023/10/11 09:53:41;;;;;;;3.60;1.43;;;;;;;;;;5070958;28;20241;-73
2023/10/11 09:56:15;;;;;;;3.03;1.73;;;;;;;;;;5070408;28;20289;-73
2023/10/11 09:58:48;;;;;;;2.43;1.67;;;;;;;;;;5070719;28;20197;-73
2023/10/11 10:01:21;;;;;;;11.83;2.70;;;;;;;;;;5070026;28;20194;-73
2023/10/11 10:03:52;;;;;;;5.27;1.57;;;;;;;;;;5070460;28;20594;-74
2023/10/11 10:06:21;;;;;;;3.73;1.63;;;;;;;;;;5070390;28;20209;-73
2023/10/11 10:09:23;;;;;;;3.33;2.20;;;;;;;;;;5070323;28;20236;-73
2023/10/11 10:12:21;;;;;;;4.90;1.43;;;;;;;;;;5070452;28;20685;-73
2023/10/11 10:14:53;;;;;;;2.37;1.80;;;;;;;;;;5070762;28;20260;-73
2023/10/11 10:17:20;;;;;;;3.43;2.10;;;;;;;;;;5056616;28;20229;-73
2023/10/11 10:19:47;;;;;;;4.00;3.43;;;;;;;;;;5070420;28;20207;-73
2023/10/11 10:22:17;;;;;;;4.67;3.87;;;;;;;;;;5069261;28;20711;-73
2023/10/11 10:24:47;;;;;;;2.83;1.60;;;;;;;;;;5070709;28;20211;-73
2023/10/11 10:27:40;;;;;;;6.20;1.83;;;;;;;;;;5070826;28;20293;-73
2023/10/11 10:30:08;;;;;;;2.17;1.43;;;;;;;;;;5070161;28;20660;-73
2023/10/11 10:32:35;;;;;;;6.70;1.73;;;;;;;;;;5070275;28;20606;-73
2023/10/11 10:35:28;;;;;;;4.67;2.47;;;;;;;;;;5070445;28;20676;-73
2023/10/11 10:37:57;;;;;;;3.13;1.83;;;;;;;;;;5070234;28;20205;-73
2023/10/11 10:40:27;;;;;;;5.07;1.40;;;;;;;;;;5070523;28;20271;-73
2023/10/11 10:43:19;;;;;;;2.07;1.47;;;;;;;;;;5069739;28;20206;-73
2023/10/11 10:45:48;;;;;;;6.37;1.67;;;;;;;;;;5070705;28;20590;-73
2023/10/11 10:48:18;;;;;;;1.80;1.43;;;;;;;;;;5070200;28;20268;-74
2023/10/11 10:50:48;;;;;;;5.80;1.70;;;;;;;;;;5069361;28;20224;-73
2023/10/11 10:53:16;;;;;;;2.63;1.40;;;;;;;;;;5056808;28;20205;-73
2023/10/11 10:55:43;;;;;;;5.70;2.20;;;;;;;;;;5070178;28;20209;-73
2023/10/11 10:58:17;;;;;;;7.40;1.77;;;;;;;;;;5070214;28;20216;-74
2023/10/11 11:01:26;;;;;;;5.97;1.83;;;;;;;;;;5069800;28;20227;-73
2023/10/11 11:04:14;;;;;;;4.03;1.90;;;;;;;;;;5060540;28;20223;-73
2023/10/11 11:07:12;;;;;;;2.93;1.53;;;;;;;;;;5069948;28;20208;-73
2023/10/11 11:10:06;;;;;;;4.23;1.77;;;;;;;;;;5051183;28;20270;-74
2023/10/11 11:13:03;;;;;;;4.67;1.50;;;;;;;;;;5068511;28;20291;-73
2023/10/11 11:16:09;;;;;;;4.73;2.20;;;;;;;;;;5064604;28;20693;-73
2023/10/11 11:25:26;;;;;;;2.40;1.27;;;;;;;;;;4968077;28;20218;-74
2023/10/11 11:34:34;;;;;;;2.53;1.93;;;;;;;;;;4988639;28;20306;-73
2023/10/11 11:44:03;;;;;;;4.47;1.70;;;;;;;;;;5028907;28;20628;-73
2023/10/11 11:46:29;;;;;;;3.23;1.60;;;;;;;;;;5050543;28;20225;-73
2023/10/11 11:48:59;;;;;;;4.07;1.97;;;;;;;;;;5050674;28;20740;-73
2023/10/11 11:51:26;;;;;;;2.70;1.90;;;;;;;;;;5050645;28;20324;-73
2023/10/11 11:53:54;;;;;;;2.70;1.80;;;;;;;;;;5050645;28;20237;-73
2023/10/11 11:56:19;;;;;;;3.83;1.87;;;;;;;;;;5050576;28;20694;-73
2023/10/11 11:58:47;;;;;;;3.00;2.17;;;;;;;;;;5050689;28;20202;-73
2023/10/11 12:01:19;;;;;;;7.60;3.27;;;;;;;;;;5050178;28;20210;-73
2023/10/11 12:03:52;;;;;;;3.93;2.90;;;;;;;;;;5051000;28;20221;-74
2023/10/11 12:06:24;;;;;;;2.87;2.03;;;;;;;;;;5025809;28;20212;-73
2023/10/11 12:08:58;;;;;;;4.87;1.87;;;;;;;;;;5050230;28;20296;-73
2023/10/11 12:11:28;;;;;;;6.40;2.23;;;;;;;;;;5050196;28;20294;-73
2023/10/11 12:13:58;;;;;;;11.37;2.20;;;;;;;;;;5049789;28;20202;-73
2023/10/11 12:16:26;;;;;;;2.63;2.37;;;;;;;;;;5050511;28;20807;-73
2023/10/11 12:18:58;;;;;;;2.80;1.80;;;;;;;;;;5049886;28;20213;-73
2023/10/11 12:21:25;;;;;;;1.93;1.83;;;;;;;;;;5050541;28;20260;-73
2023/10/11 12:23:52;;;;;;;6.53;2.40;;;;;;;;;;5050318;28;20206;-73
2023/10/11 12:26:20;;;;;;;2.27;2.00;;;;;;;;;;5049570;28;20666;-73
2023/10/11 12:28:48;;;;;;;5.70;2.17;;;;;;;;;;5050048;28;20225;-73
2023/10/11 12:31:16;;;;;;;3.10;2.10;;;;;;;;;;5050295;28;20210;-73
2023/10/11 12:33:47;;;;;;;4.03;2.63;;;;;;;;;;5050542;28;20285;-72
2023/10/11 12:36:19;;;;;;;2.73;2.20;;;;;;;;;;5050114;28;20696;-73
2023/10/11 12:38:47;;;;;;;7.03;1.97;;;;;;;;;;5050030;28;20205;-73
2023/10/11 12:41:15;;;;;;;2.30;1.93;;;;;;;;;;5049104;28;20206;-73
2023/10/11 12:43:45;;;;;;;3.57;2.17;;;;;;;;;;5050222;28;20298;-73
2023/10/11 12:46:12;;;;;;;1.80;1.70;;;;;;;;;;5048685;28;20287;-73
2023/10/11 12:48:38;;;;;;;5.60;2.10;;;;;;;;;;5049934;28;20316;-74
2023/10/11 12:51:06;;;;;;;3.97;2.13;;;;;;;;;;5049511;28;20235;-72
2023/10/11 12:53:35;;;;;;;2.40;1.83;;;;;;;;;;5061410;28;20213;-73
2023/10/11 12:56:02;;;;;;;5.60;2.10;;;;;;;;;;5071811;28;20288;-72
2023/10/11 12:58:38;;;;;;;6.40;2.10;;;;;;;;;;5071661;28;20213;-73
2023/10/11 13:01:11;;;;;;;2.67;1.87;;;;;;;;;;5071954;28;20201;-73
2023/10/11 13:03:38;;;;;;;7.37;2.10;;;;;;;;;;5071799;28;20694;-73
2023/10/11 13:06:09;;;;;;;3.10;2.13;;;;;;;;;;5071669;28;20201;-72
2023/10/11 13:08:37;;;;;;;4.80;2.47;;;;;;;;;;5071450;28;20225;-73
2023/10/11 13:11:10;;;;;;;2.17;1.97;;;;;;;;;;5071483;28;20284;-73
2023/10/11 13:13:37;;;;;;;2.10;1.90;;;;;;;;;;5071522;28;20208;-70
2023/10/11 13:16:06;;;;;;;4.33;2.57;;;;;;;;;;5071449;28;20228;-70
2023/10/11 13:18:37;;;;;;;5.03;2.00;;;;;;;;;;5070642;28;20678;-70
2023/10/11 13:21:05;;;;;;;2.23;2.00;;;;;;;;;;5071553;28;20640;-70
2023/10/11 13:23:34;;;;;;;3.90;2.80;;;;;;;;;;5071086;28;20208;-70
2023/10/11 13:26:06;;;;;;;3.23;2.90;;;;;;;;;;5071531;28;20201;-70
2023/10/11 13:28:33;;;;;;;6.30;1.90;;;;;;;;;;5070902;28;20264;-70
2023/10/11 13:31:01;;;;;;;4.60;1.90;;;;;;;;;;5071253;28;20211;-70
2023/10/11 13:33:30;;;;;;;4.30;2.20;;;;;;;;;;5071315;28;20205;-70
2023/10/11 13:35:58;;;;;;;3.33;2.33;;;;;;;;;;5070913;28;20288;-70
2023/10/11 13:38:24;;;;;;;4.60;2.30;;;;;;;;;;5070516;28;20205;-70
2023/10/11 13:40:56;;;;;;;3.93;2.13;;;;;;;;;;5071198;28;20723;-70
2023/10/11 13:43:23;;;;;;;4.73;2.80;;;;;;;;;;5071162;28;20209;-70
2023/10/11 13:45:56;;;;;;;3.83;2.03;;;;;;;;;;5070784;28;20274;-70
2023/10/11 13:48:26;;;;;;;8.00;2.87;;;;;;;;;;5070797;28;20319;-70
2023/10/11 13:50:56;;;;;;;3.97;2.00;;;;;;;;;;5071337;28;20586;-70
2023/10/11 13:53:24;;;;;;;5.43;2.33;;;;;;;;;;5070760;28;20212;-70
2023/10/11 13:55:53;;;;;;;8.07;2.20;;;;;;;;;;5070922;28;20219;-70
2023/10/11 13:58:20;;;;;;;4.73;3.00;;;;;;;;;;5070817;28;20285;-70
2023/10/11 14:01:01;;;;;;;3.10;2.03;;;;;;;;;;5070780;28;20212;-71
2023/10/11 14:08:57;;;;;;;14.23;2.20;;;;;;;;;;5066586;28;20323;-72
2023/10/11 14:11:25;;;;;;;2.83;2.07;;;;;;;;;;5070460;28;20243;-72
2023/10/11 14:13:52;;;;;;;6.70;2.17;;;;;;;;;;5070261;28;20204;-72
2023/10/11 14:16:22;;;;;;;4.10;2.20;;;;;;;;;;5069967;28;20205;-72
2023/10/11 14:18:53;;;;;;;4.97;2.27;;;;;;;;;;5070650;28;20266;-72
2023/10/11 14:21:23;;;;;;;5.57;2.53;;;;;;;;;;5070581;28;20207;-72
2023/10/11 14:23:51;;;;;;;3.27;1.90;;;;;;;;;;5066115;28;20900;-72
2023/10/11 14:26:18;;;;;;;2.20;2.00;;;;;;;;;;5062857;28;20197;-73
2023/10/11 14:28:46;;;;;;;7.50;2.10;;;;;;;;;;5065559;28;20660;-73
2023/10/11 14:31:16;;;;;;;4.77;2.13;;;;;;;;;;5070483;28;20205;-73
2023/10/11 14:33:43;;;;;;;7.33;2.60;;;;;;;;;;5044230;28;20284;-73
2023/10/11 14:36:10;;;;;;;11.13;2.97;;;;;;;;;;5070435;28;20197;-73
2023/10/11 14:38:38;;;;;;;6.23;3.50;;;;;;;;;;5070383;28;20262;-72
2023/10/11 14:41:09;;;;;;;4.03;3.70;;;;;;;;;;5070087;28;20258;-72
2023/10/11 14:43:36;;;;;;;2.47;2.10;;;;;;;;;;5070498;28;20262;-71
2023/10/11 14:46:06;;;;;;;7.27;2.83;;;;;;;;;;5069561;28;20201;-71
2023/10/11 14:48:34;;;;;;;5.97;4.77;;;;;;;;;;5069752;28;20224;-73
2023/10/11 14:51:06;;;;;;;19.50;5.37;;;;;;;;;;5069923;28;20263;-72
2023/10/11 14:53:34;;;;;;;4.87;3.57;;;;;;;;;;5070257;28;20590;-72
2023/10/11 14:56:06;;;;;;;14.57;9.50;;;;;;;;;;5069842;28;20201;-72
2023/10/11 14:58:34;;;;;;;5.40;4.90;;;;;;;;;;5070453;28;20258;-72
2023/10/11 15:01:07;;;;;;;6.53;4.60;;;;;;;;;;5070328;28;20201;-72
2023/10/11 15:03:36;;;;;;;39.57;26.23;;;;;;;;;;5069897;28;20205;-72
2023/10/11 15:06:08;;;;;;;13.63;9.53;;;;;;;;;;5073324;28;20197;-72
2023/10/11 15:08:37;;;;;;;11.70;7.70;;;;;;;;;;5073770;28;20204;-72
2023/10/11 15:11:05;;;;;;;9.47;4.23;;;;;;;;;;5060816;28;20315;-72
2023/10/11 15:13:33;;;;;;;8.37;5.47;;;;;;;;;;5074113;28;20208;-72
2023/10/11 15:16:01;;;;;;;18.37;11.10;;;;;;;;;;5073970;28;20299;-72
2023/10/11 15:18:29;;;;;;;8.17;6.63;;;;;;;;;;5073443;28;20240;-72
2023/10/11 15:20:56;;;;;;;29.23;25.60;;;;;;;;;;5073905;28;20280;-72
2023/10/11 15:23:23;;;;;;;42.77;34.03;;;;;;;;;;5073576;28;20197;-72
2023/10/11 15:25:50;;;;;;;29.30;25.40;;;;;;;;;;5073597;28;20767;-72
2023/10/11 15:28:18;;;;;;;11.20;9.07;;;;;;;;;;5072906;28;20667;-72
2023/10/11 15:30:45;;;;;;;8.60;5.03;;;;;;;;;;5073766;28;20236;-72
2023/10/11 15:33:12;;;;;;;8.77;5.67;;;;;;;;;;5072848;28;20203;-72
2023/10/11 15:35:40;;;;;;;5.63;3.53;;;;;;;;;;5072960;28;20637;-72
2023/10/11 15:38:07;;;;;;;4.67;2.27;;;;;;;;;;5072916;28;20201;-72
2023/10/11 15:40:34;;;;;;;2.43;2.23;;;;;;;;;;5072768;28;20591;-72
2023/10/11 15:43:01;;;;;;;5.30;2.63;;;;;;;;;;5072670;28;20197;-72
2023/10/11 15:45:28;;;;;;;2.33;2.10;;;;;;;;;;5073316;28;20612;-72
2023/10/11 15:47:54;;;;;;;3.70;2.50;;;;;;;;;;5073212;28;20197;-72
2023/10/11 15:50:22;;;;;;;4.60;2.13;;;;;;;;;;5073611;28;20240;-72
2023/10/11 15:52:52;;;;;;;6.00;2.90;;;;;;;;;;5072986;28;20303;-72
2023/10/11 15:55:22;;;;;;;4.43;2.03;;;;;;;;;;5073445;28;20287;-72